createdAt,value
2022-08-17T00:01:52.727Z,21.30
2022-08-17T00:04:20.589Z,21.10
2022-08-17T00:06:52.608Z,21.20
2022-08-17T00:09:41.402Z,21.10
2022-08-17T00:12:51.508Z,21.00
2022-08-17T00:14:42.683Z,21.40
2022-08-17T00:17:12.203Z,21.20
2022-08-17T00:19:41.812Z,21.10
2022-08-17T00:22:32.785Z,21.20
2022-08-17T00:24:43.084Z,21.10
2022-08-17T00:27:12.564Z,21.10
2022-08-17T00:29:42.317Z,21.20
2022-08-17T00:33:12.524Z,21.50
2022-08-17T00:34:44.280Z,21.20
2022-08-17T00:37:13.789Z,21.10
2022-08-17T00:39:43.309Z,20.80
2022-08-17T00:42:18.752Z,20.90
2022-08-17T00:44:48.322Z,20.90
2022-08-17T00:47:17.870Z,20.90
2022-08-17T00:49:47.471Z,21.00
2022-08-17T00:52:21.804Z,20.50
2022-08-17T00:54:54.740Z,20.40
2022-08-17T00:57:33.427Z,20.20
2022-08-17T01:00:17.969Z,20.20
2022-08-17T01:02:49.548Z,20.00
2022-08-17T01:05:21.796Z,20.00
2022-08-17T01:07:52.369Z,19.90
2022-08-17T01:11:00.145Z,20.00
2022-08-17T01:12:57.382Z,19.90
2022-08-17T01:15:27.928Z,19.90
2022-08-17T01:17:58.317Z,19.70
2022-08-17T01:20:28.140Z,19.70
2022-08-17T01:22:57.757Z,19.80
2022-08-17T01:25:28.343Z,20.10
2022-08-17T01:27:58.042Z,20.10
2022-08-17T01:30:57.901Z,20.00
2022-08-17T01:32:59.434Z,20.00
2022-08-17T01:35:28.943Z,19.90
2022-08-17T01:37:58.459Z,20.10
2022-08-17T01:40:33.772Z,20.20
2022-08-17T01:43:07.862Z,20.40
2022-08-17T01:45:43.331Z,20.50
2022-08-17T01:48:14.818Z,20.30
2022-08-17T01:50:47.521Z,20.20
2022-08-17T01:53:25.296Z,20.30
2022-08-17T01:56:00.856Z,20.30
2022-08-17T01:58:30.464Z,19.80
2022-08-17T02:01:01.476Z,20.40
2022-08-17T02:03:33.053Z,20.50
2022-08-17T02:06:05.373Z,20.50
2022-08-17T02:08:56.980Z,20.60
2022-08-17T02:11:12.038Z,20.60
2022-08-17T02:13:42.491Z,20.60
2022-08-17T02:16:12.156Z,20.80
2022-08-17T02:18:42.052Z,20.50
2022-08-17T02:21:12.303Z,20.60
2022-08-17T02:25:47.490Z,20.90
2022-08-17T02:28:20.043Z,20.80
2022-08-17T02:31:00.627Z,20.90
2022-08-17T02:33:41.776Z,20.90
2022-08-17T02:35:57.926Z,20.80
2022-08-17T02:38:27.535Z,20.60
2022-08-17T02:40:58.596Z,20.40
2022-08-17T02:43:29.303Z,20.20
2022-08-17T02:45:58.901Z,20.10
2022-08-17T02:48:31.031Z,20.40
2022-08-17T02:51:00.402Z,19.70
2022-08-17T02:53:36.031Z,19.80
2022-08-17T02:56:01.202Z,20.10
2022-08-17T02:58:35.031Z,20.00
2022-08-17T03:01:01.950Z,20.00
2022-08-17T03:03:31.683Z,20.30
2022-08-17T03:06:01.450Z,20.20
2022-08-17T03:08:31.880Z,20.30
2022-08-17T03:11:01.803Z,20.20
2022-08-17T03:13:31.441Z,20.10
2022-08-17T03:16:00.949Z,20.10
2022-08-17T03:18:30.463Z,20.10
2022-08-17T03:21:04.327Z,19.80
2022-08-17T03:23:34.002Z,20.10
2022-08-17T03:26:04.048Z,20.20
2022-08-17T03:28:35.269Z,20.20
2022-08-17T03:31:06.188Z,20.10
2022-08-17T03:33:35.782Z,20.00
2022-08-17T03:36:05.572Z,20.10
2022-08-17T03:38:39.193Z,20.10
2022-08-17T03:41:07.041Z,20.30
2022-08-17T03:43:36.578Z,20.00
2022-08-17T03:46:28.777Z,19.90
2022-08-17T03:49:13.446Z,20.00
2022-08-17T03:52:01.213Z,19.80
2022-08-17T03:54:48.852Z,19.80
2022-08-17T03:57:19.398Z,19.80
2022-08-17T03:59:49.570Z,20.00
2022-08-17T04:02:30.887Z,20.10
2022-08-17T04:05:01.179Z,20.20
2022-08-17T04:07:32.561Z,20.20
2022-08-17T04:10:02.281Z,20.30
2022-08-17T04:12:34.864Z,20.30
2022-08-17T04:15:04.573Z,20.30
2022-08-17T04:17:34.026Z,20.20
2022-08-17T04:20:03.517Z,20.20
2022-08-17T04:22:34.421Z,20.20
2022-08-17T04:25:09.884Z,20.20
2022-08-17T04:27:39.350Z,20.20
2022-08-17T04:30:10.183Z,20.10
2022-08-17T04:33:05.725Z,20.10
2022-08-17T04:35:35.184Z,20.10
2022-08-17T04:38:05.678Z,20.20
2022-08-17T04:40:53.320Z,20.10
2022-08-17T04:43:25.523Z,19.80
2022-08-17T04:45:58.019Z,20.00
2022-08-17T04:48:36.617Z,20.10
2022-08-17T04:51:03.314Z,20.20
2022-08-17T04:53:32.945Z,20.20
2022-08-17T04:56:02.599Z,20.30
2022-08-17T04:58:32.107Z,20.20
2022-08-17T05:01:01.942Z,20.10
2022-08-17T05:03:32.390Z,20.20
2022-08-17T05:06:02.005Z,20.30
2022-08-17T05:08:31.502Z,20.40
2022-08-17T05:11:01.245Z,20.40
2022-08-17T05:13:30.736Z,20.30
2022-08-17T05:16:03.262Z,20.20
2022-08-17T05:18:33.348Z,20.10
2022-08-17T05:21:03.854Z,20.30
2022-08-17T05:23:41.993Z,20.20
2022-08-17T05:26:06.290Z,20.00
2022-08-17T05:28:37.155Z,19.90
2022-08-17T05:31:07.734Z,20.10
2022-08-17T05:33:44.430Z,20.20
2022-08-17T05:36:41.861Z,20.30
2022-08-17T05:38:45.563Z,20.40
2022-08-17T05:41:15.130Z,20.40
2022-08-17T05:43:44.628Z,20.20
2022-08-17T05:46:22.816Z,20.10
2022-08-17T05:48:55.821Z,19.90
2022-08-17T05:51:33.842Z,20.30
2022-08-17T05:54:18.207Z,20.30
2022-08-17T05:56:59.936Z,20.40
2022-08-17T05:59:44.871Z,20.30
2022-08-17T06:02:25.915Z,20.40
2022-08-17T06:05:10.621Z,20.50
2022-08-17T06:07:43.140Z,20.60
2022-08-17T06:10:33.013Z,20.50
2022-08-17T06:13:05.534Z,20.40
2022-08-17T06:15:35.846Z,20.60
2022-08-17T06:18:08.292Z,20.70
2022-08-17T06:20:49.788Z,20.60
2022-08-17T06:23:28.512Z,20.10
2022-08-17T06:26:03.884Z,20.40
2022-08-17T06:28:39.155Z,20.40
2022-08-17T06:31:23.597Z,20.60
2022-08-17T06:33:53.134Z,20.80
2022-08-17T06:36:31.934Z,20.90
2022-08-17T06:39:26.575Z,20.90
2022-08-17T06:43:02.666Z,21.00
2022-08-17T06:45:01.815Z,20.90
2022-08-17T06:47:55.658Z,21.10
2022-08-17T06:50:42.036Z,21.10
2022-08-17T06:53:26.300Z,21.00
2022-08-17T06:56:14.095Z,20.90
2022-08-17T06:58:45.549Z,20.90
2022-08-17T07:01:20.820Z,20.90
2022-08-17T07:03:55.962Z,20.80
2022-08-17T07:06:38.260Z,20.90
2022-08-17T07:09:17.362Z,21.00
2022-08-17T07:12:01.224Z,21.00
2022-08-17T07:14:39.445Z,20.90
2022-08-17T07:17:12.099Z,21.00
2022-08-17T07:19:45.601Z,21.00
2022-08-17T07:22:23.929Z,21.00
2022-08-17T07:24:59.716Z,20.80
2022-08-17T07:27:32.489Z,20.70
2022-08-17T07:30:10.581Z,20.70
2022-08-17T07:32:45.461Z,21.00
2022-08-17T07:35:41.078Z,21.10
2022-08-17T07:38:26.063Z,21.10
2022-08-17T07:41:05.221Z,21.20
2022-08-17T07:43:44.642Z,21.30
2022-08-17T07:46:44.048Z,21.20
2022-08-17T07:49:16.556Z,21.00
2022-08-17T07:51:46.886Z,21.10
2022-08-17T07:54:25.050Z,21.30
2022-08-17T07:57:15.999Z,21.30
2022-08-17T08:00:03.716Z,21.40
2022-08-17T08:02:39.780Z,21.30
2022-08-17T08:05:49.679Z,21.40
2022-08-17T08:08:03.076Z,21.40
2022-08-17T08:10:36.067Z,21.30
2022-08-17T08:13:26.840Z,21.40
2022-08-17T08:15:59.147Z,21.50
2022-08-17T08:18:38.763Z,21.50
2022-08-17T08:21:12.736Z,21.60
2022-08-17T08:24:00.568Z,21.70
2022-08-17T08:26:49.350Z,21.70
2022-08-17T08:29:26.583Z,21.60
2022-08-17T08:32:04.837Z,21.70
2022-08-17T08:35:01.778Z,21.60
2022-08-17T08:37:40.521Z,21.60
2022-08-17T08:40:33.842Z,21.70
2022-08-17T08:43:31.967Z,21.60
2022-08-17T08:46:13.678Z,21.70
2022-08-17T08:49:12.273Z,22.00
2022-08-17T08:51:47.291Z,22.10
2022-08-17T08:54:26.916Z,22.10
2022-08-17T08:57:26.432Z,22.30
2022-08-17T09:00:15.090Z,22.40
2022-08-17T09:02:57.265Z,22.40
2022-08-17T09:05:41.590Z,22.40
2022-08-17T09:08:39.698Z,22.20
2022-08-17T09:12:02.081Z,22.30
2022-08-17T09:14:46.631Z,22.70
2022-08-17T09:17:37.657Z,22.60
2022-08-17T09:20:27.891Z,22.60
2022-08-17T09:23:03.047Z,22.80
2022-08-17T09:25:36.119Z,23.10
2022-08-17T09:28:06.451Z,23.30
2022-08-17T09:30:47.564Z,23.20
2022-08-17T09:33:23.320Z,23.30
2022-08-17T09:36:02.329Z,23.40
2022-08-17T09:38:38.033Z,23.50
2022-08-17T09:41:34.446Z,23.40
2022-08-17T09:44:39.443Z,23.30
2022-08-17T09:47:20.703Z,23.60
2022-08-17T09:49:55.897Z,24.00
2022-08-17T09:52:30.679Z,23.90
2022-08-17T09:55:02.090Z,23.90
2022-08-17T09:57:57.287Z,23.90
2022-08-17T10:00:30.755Z,23.70
2022-08-17T10:03:26.176Z,23.80
2022-08-17T10:06:06.581Z,23.90
2022-08-17T10:08:39.112Z,23.90
2022-08-17T10:11:09.374Z,23.80
2022-08-17T10:14:35.898Z,23.90
2022-08-17T10:16:53.006Z,23.80
2022-08-17T10:19:37.400Z,23.90
2022-08-17T10:22:52.645Z,23.90
2022-08-17T10:25:54.045Z,24.40
2022-08-17T10:28:19.642Z,24.70
2022-08-17T10:30:49.029Z,24.90
2022-08-17T10:33:21.742Z,25.20
2022-08-17T10:36:06.358Z,25.30
2022-08-17T10:38:52.737Z,25.30
2022-08-17T10:41:39.701Z,25.80
2022-08-17T10:44:38.729Z,25.80
2022-08-17T10:47:16.623Z,25.90
2022-08-17T10:49:51.414Z,25.70
2022-08-17T10:52:25.094Z,26.00
2022-08-17T10:54:58.666Z,26.70
2022-08-17T10:57:32.534Z,27.20
2022-08-17T11:00:15.092Z,27.30
2022-08-17T11:02:53.569Z,27.80
2022-08-17T11:05:44.192Z,28.60
2022-08-17T11:08:17.445Z,28.50
2022-08-17T11:10:52.687Z,27.70
2022-08-17T11:13:33.955Z,28.20
2022-08-17T11:16:23.136Z,27.90
2022-08-17T11:19:21.280Z,28.10
2022-08-17T11:21:59.598Z,28.30
2022-08-17T11:24:37.937Z,29.00
2022-08-17T11:27:16.532Z,29.50
2022-08-17T11:30:01.263Z,28.40
2022-08-17T11:32:37.730Z,28.10
2022-08-17T11:35:13.187Z,28.00
2022-08-17T11:38:16.379Z,27.80
2022-08-17T11:41:15.200Z,27.40
2022-08-17T11:44:05.637Z,27.60
2022-08-17T11:47:29.498Z,27.50
2022-08-17T11:50:28.150Z,27.60
2022-08-17T11:52:57.008Z,28.00
2022-08-17T11:55:38.559Z,28.50
2022-08-17T11:58:33.859Z,28.20
2022-08-17T12:01:05.984Z,28.30
2022-08-17T12:03:38.782Z,28.40
2022-08-17T12:06:30.258Z,29.10
2022-08-17T12:09:15.800Z,28.60
2022-08-17T12:11:55.575Z,28.90
2022-08-17T12:15:05.931Z,29.30
2022-08-17T12:17:13.046Z,29.50
2022-08-17T12:19:44.636Z,28.80
2022-08-17T12:22:20.428Z,28.80
2022-08-17T12:25:00.741Z,28.80
2022-08-17T12:27:47.587Z,29.00
2022-08-17T12:30:16.342Z,28.80
2022-08-17T12:32:48.727Z,28.30
2022-08-17T12:35:38.534Z,27.70
2022-08-17T12:38:31.929Z,27.60
2022-08-17T12:40:41.619Z,27.10
2022-08-17T12:43:22.961Z,27.00
2022-08-17T12:46:13.008Z,26.90
2022-08-17T12:48:34.367Z,26.60
2022-08-17T12:51:08.216Z,26.30
2022-08-17T12:53:37.756Z,26.30
2022-08-17T12:56:12.146Z,26.20
2022-08-17T12:58:47.691Z,26.30
2022-08-17T13:01:18.542Z,26.10
2022-08-17T13:03:51.034Z,26.00
2022-08-17T13:06:33.623Z,25.80
2022-08-17T13:09:18.240Z,25.70
2022-08-17T13:11:50.594Z,25.60
2022-08-17T13:14:20.546Z,25.70
2022-08-17T13:16:53.373Z,25.90
2022-08-17T13:19:40.038Z,25.80
2022-08-17T13:21:57.045Z,25.90
2022-08-17T13:24:38.559Z,26.10
2022-08-17T13:27:08.730Z,26.40
2022-08-17T13:29:51.164Z,26.60
2022-08-17T13:32:26.841Z,26.80
2022-08-17T13:35:14.951Z,26.50
2022-08-17T13:37:35.634Z,26.70
2022-08-17T13:40:11.405Z,26.70
2022-08-17T13:42:52.339Z,26.70
2022-08-17T13:45:39.126Z,26.50
2022-08-17T13:48:20.888Z,26.50
2022-08-17T13:51:00.001Z,26.70
2022-08-17T13:53:42.540Z,26.60
2022-08-17T13:56:37.167Z,26.50
2022-08-17T13:59:08.129Z,26.40
2022-08-17T14:01:53.828Z,26.50
2022-08-17T14:04:24.883Z,26.50
2022-08-17T14:07:04.024Z,26.80
2022-08-17T14:09:39.548Z,26.80
2022-08-17T14:12:12.151Z,26.80
2022-08-17T14:14:43.224Z,26.80
2022-08-17T14:17:14.156Z,26.70
2022-08-17T14:19:44.259Z,26.80
2022-08-17T14:22:19.770Z,27.10
2022-08-17T14:24:49.743Z,27.00
2022-08-17T14:27:22.127Z,27.00
2022-08-17T14:29:53.198Z,27.20
2022-08-17T14:32:25.826Z,27.20
2022-08-17T14:34:56.999Z,27.20
2022-08-17T14:37:28.681Z,27.40
2022-08-17T14:40:01.554Z,27.30
2022-08-17T14:42:33.731Z,27.20
2022-08-17T14:45:06.334Z,27.30
2022-08-17T14:47:40.425Z,27.20
2022-08-17T14:50:13.652Z,27.00
2022-08-17T14:52:45.054Z,27.00
2022-08-17T14:55:20.829Z,27.00
2022-08-17T14:57:50.571Z,26.80
2022-08-17T15:00:20.439Z,27.00
2022-08-17T15:02:55.808Z,27.00
2022-08-17T15:05:30.082Z,27.30
2022-08-17T15:08:01.162Z,27.20
2022-08-17T15:10:32.256Z,27.20
2022-08-17T15:13:01.882Z,27.00
2022-08-17T15:15:33.963Z,26.90
2022-08-17T15:18:04.377Z,26.80
2022-08-17T15:20:35.825Z,26.70
2022-08-17T15:23:07.054Z,26.80
2022-08-17T15:25:36.856Z,26.70
2022-08-17T15:28:07.394Z,26.80
2022-08-17T15:30:36.983Z,26.90
2022-08-17T15:33:07.763Z,26.80
2022-08-17T15:35:37.775Z,27.10
2022-08-17T15:38:12.053Z,27.20
2022-08-17T15:40:42.314Z,27.10
2022-08-17T15:43:26.505Z,27.00
2022-08-17T15:46:01.607Z,26.90
2022-08-17T15:48:42.631Z,27.10
2022-08-17T15:51:18.246Z,27.10
2022-08-17T15:53:50.862Z,26.80
2022-08-17T15:56:21.255Z,26.90
2022-08-17T15:58:51.810Z,26.80
2022-08-17T16:02:11.987Z,26.70
2022-08-17T16:04:04.053Z,26.60
2022-08-17T16:06:30.273Z,26.60
2022-08-17T16:09:01.023Z,26.40
2022-08-17T16:11:30.558Z,26.20
2022-08-17T16:14:00.026Z,26.10
2022-08-17T16:16:31.311Z,26.00
2022-08-17T16:19:01.752Z,26.10
2022-08-17T16:21:42.716Z,26.00
2022-08-17T16:24:13.301Z,25.90
2022-08-17T16:26:39.874Z,25.80
2022-08-17T16:29:11.579Z,25.80
2022-08-17T16:31:42.870Z,25.70
2022-08-17T16:34:17.717Z,25.60
2022-08-17T16:36:55.519Z,25.70
2022-08-17T16:39:15.913Z,25.70
2022-08-17T16:41:48.903Z,25.60
2022-08-17T16:44:21.393Z,25.70
2022-08-17T16:46:51.535Z,25.70
2022-08-17T16:49:36.103Z,25.60
2022-08-17T16:51:53.381Z,25.60
2022-08-17T16:54:24.577Z,25.60
2022-08-17T16:56:54.752Z,25.50
2022-08-17T16:59:30.142Z,25.40
2022-08-17T17:01:57.252Z,25.30
2022-08-17T17:04:27.699Z,25.20
2022-08-17T17:07:28.442Z,25.20
2022-08-17T17:09:59.740Z,25.10
2022-08-17T17:12:59.601Z,25.10
2022-08-17T17:15:02.272Z,25.00
2022-08-17T17:17:36.064Z,25.10
2022-08-17T17:20:11.377Z,25.10
2022-08-17T17:23:02.651Z,25.10
2022-08-17T17:25:56.500Z,25.10
2022-08-17T17:28:31.738Z,25.00
2022-08-17T17:31:07.020Z,24.90
2022-08-17T17:33:54.343Z,24.80
2022-08-17T17:36:29.935Z,24.80
2022-08-17T17:39:04.230Z,24.80
2022-08-17T17:41:57.591Z,24.70
2022-08-17T17:44:31.501Z,24.60
2022-08-17T17:47:03.986Z,24.50
2022-08-17T17:49:39.374Z,24.40
2022-08-17T17:52:48.389Z,24.40
2022-08-17T17:55:36.131Z,24.30
2022-08-17T17:58:14.622Z,24.30
2022-08-17T18:01:19.336Z,24.20
2022-08-17T18:04:20.592Z,24.20
2022-08-17T18:06:55.356Z,24.10
2022-08-17T18:09:27.559Z,24.10
2022-08-17T18:12:13.776Z,24.00
2022-08-17T18:14:49.634Z,24.00
2022-08-17T18:17:20.893Z,23.90
2022-08-17T18:19:50.647Z,23.90
2022-08-17T18:22:23.647Z,23.80
2022-08-17T18:24:59.008Z,23.90
2022-08-17T18:27:43.682Z,23.90
2022-08-17T18:30:20.015Z,23.90
2022-08-17T18:32:49.599Z,23.80
2022-08-17T18:35:27.871Z,23.90
2022-08-17T18:38:00.387Z,23.80
2022-08-17T18:40:33.164Z,23.70
2022-08-17T18:43:11.384Z,23.70
2022-08-17T18:45:44.000Z,23.60
2022-08-17T18:48:32.805Z,23.50
2022-08-17T18:51:39.694Z,23.50
2022-08-17T18:54:08.192Z,23.40
2022-08-17T18:56:55.983Z,23.40
2022-08-17T18:59:43.721Z,23.30
2022-08-17T19:02:24.250Z,23.30
2022-08-17T19:05:08.124Z,23.20
2022-08-17T19:07:40.737Z,23.20
2022-08-17T19:10:19.635Z,23.20
2022-08-17T19:13:00.480Z,23.20
2022-08-17T19:15:32.633Z,23.20
2022-08-17T19:18:19.958Z,23.10
2022-08-17T19:20:55.450Z,23.10
2022-08-17T19:23:33.847Z,23.10
2022-08-17T19:26:06.910Z,23.10
2022-08-17T19:28:50.287Z,23.00
2022-08-17T19:31:26.291Z,22.90
2022-08-17T19:33:58.020Z,22.80
2022-08-17T19:36:45.738Z,22.80
2022-08-17T19:39:37.985Z,23.00
2022-08-17T19:42:09.784Z,23.00
2022-08-17T19:44:51.198Z,23.00
2022-08-17T19:47:53.955Z,22.90
2022-08-17T19:50:19.179Z,22.80
2022-08-17T19:52:54.569Z,22.90
2022-08-17T19:55:28.846Z,22.80
2022-08-17T19:58:01.349Z,22.90
2022-08-17T20:00:31.709Z,22.90
2022-08-17T20:03:06.894Z,22.90
2022-08-17T20:06:12.479Z,22.80
2022-08-17T20:08:36.070Z,22.80
2022-08-17T20:11:23.468Z,22.80
2022-08-17T20:14:10.675Z,22.80
2022-08-17T20:16:40.286Z,22.70
2022-08-17T20:19:12.934Z,22.70
2022-08-17T20:21:48.020Z,22.60
2022-08-17T20:24:39.875Z,22.70
2022-08-17T20:27:31.746Z,22.80
2022-08-17T20:30:04.659Z,22.70
2022-08-17T20:32:55.930Z,22.70
2022-08-17T20:35:28.691Z,22.70
2022-08-17T20:38:04.376Z,22.60
2022-08-17T20:40:42.625Z,22.50
2022-08-17T20:43:35.160Z,22.60
2022-08-17T20:46:24.456Z,22.70
2022-08-17T20:48:59.549Z,22.60
2022-08-17T20:51:32.515Z,22.70
2022-08-17T20:54:10.659Z,22.70
2022-08-17T20:56:48.696Z,22.60
2022-08-17T20:59:28.681Z,22.60
2022-08-17T21:02:18.992Z,22.60
2022-08-17T21:04:54.812Z,22.50
2022-08-17T21:07:43.188Z,22.30
2022-08-17T21:10:28.544Z,22.20
2022-08-17T21:13:16.017Z,22.20
2022-08-17T21:15:56.825Z,22.10
2022-08-17T21:18:36.562Z,22.10
2022-08-17T21:21:27.062Z,22.00
2022-08-17T21:24:20.846Z,22.00
2022-08-17T21:27:15.427Z,21.90
2022-08-17T21:30:10.312Z,21.80
2022-08-17T21:32:42.768Z,21.60
2022-08-17T21:35:24.296Z,21.30
2022-08-17T21:37:56.826Z,21.30
2022-08-17T21:40:29.513Z,21.30
2022-08-17T21:43:02.089Z,21.50
2022-08-17T21:45:36.509Z,21.50
2022-08-17T21:48:18.303Z,21.50
2022-08-17T21:51:01.078Z,21.40
2022-08-17T21:53:39.499Z,21.40
2022-08-17T21:56:11.160Z,21.30
2022-08-17T21:58:48.296Z,21.30
2022-08-17T22:01:23.792Z,21.20
2022-08-17T22:03:59.153Z,21.20
2022-08-17T22:06:39.541Z,21.20
2022-08-17T22:09:12.568Z,21.10
2022-08-17T22:11:59.931Z,21.00
2022-08-17T22:14:51.702Z,21.10
2022-08-17T22:17:18.995Z,21.00
2022-08-17T22:20:09.743Z,21.10
2022-08-17T22:23:06.040Z,21.00
2022-08-17T22:25:38.673Z,20.70
2022-08-17T22:28:11.082Z,20.80
2022-08-17T22:30:46.676Z,20.60
2022-08-17T22:33:36.826Z,20.60
2022-08-17T22:36:12.434Z,20.70
2022-08-17T22:38:43.874Z,20.50
2022-08-17T22:41:19.228Z,20.50
2022-08-17T22:43:52.064Z,20.50
2022-08-17T22:46:24.245Z,20.40
2022-08-17T22:48:58.005Z,20.40
2022-08-17T22:51:30.971Z,20.40
2022-08-17T22:54:18.824Z,20.50
2022-08-17T22:57:12.350Z,20.40
2022-08-17T22:59:45.348Z,20.30
2022-08-17T23:02:27.411Z,20.20
2022-08-17T23:05:16.273Z,20.10
2022-08-17T23:07:48.056Z,20.30
2022-08-17T23:10:17.713Z,20.20
2022-08-17T23:12:48.873Z,20.30
2022-08-17T23:15:20.767Z,20.40
2022-08-17T23:17:50.644Z,20.40
2022-08-17T23:20:20.615Z,20.30
2022-08-17T23:22:52.419Z,20.40
2022-08-17T23:25:30.148Z,20.30
2022-08-17T23:28:03.103Z,20.30
2022-08-17T23:30:41.985Z,20.20
2022-08-17T23:33:17.799Z,20.10
2022-08-17T23:35:48.962Z,20.00
2022-08-17T23:38:18.972Z,20.00
2022-08-17T23:40:48.399Z,20.10
2022-08-17T23:43:24.084Z,20.00
2022-08-17T23:45:50.129Z,19.90
2022-08-17T23:48:35.210Z,19.90
2022-08-17T23:50:52.319Z,19.80
2022-08-17T23:53:23.768Z,19.70
2022-08-17T23:56:09.672Z,19.80
2022-08-17T23:58:26.000Z,19.70
